Time;durP1;ratioP1;P1;durP2;ratioP2;P2;SDS_P1;SDS_P2;PMS_P1;PMS_P2;Temp;Humidity;BMP_temperature;BMP_pressure;BME280_temperature;BME280_humidity;BME280_pressure;Samples;Min_cycle;Max_cycle;Signal;HPM_P1;HPM_P2
2022/06/28 00:01:28;;;;;;;4.33;3.07;;;24.90;99.90;;;;;;5056492;28;20456;-56
2022/06/28 00:03:55;;;;;;;3.30;3.10;;;24.80;99.90;;;;;;5056437;28;20446;-58
2022/06/28 00:06:21;;;;;;;3.57;3.37;;;24.70;99.90;;;;;;5056240;28;20531;-58
2022/06/28 00:08:49;;;;;;;9.83;3.93;;;24.70;99.90;;;;;;5056528;28;20547;-58
2022/06/28 00:11:15;;;;;;;3.43;3.23;;;24.70;99.90;;;;;;5056358;28;20538;-57
2022/06/28 00:13:42;;;;;;;3.97;3.70;;;24.70;99.90;;;;;;5056230;28;20450;-58
2022/06/28 00:16:10;;;;;;;4.13;3.93;;;24.70;99.90;;;;;;5056108;28;20486;-58
2022/06/28 00:18:38;;;;;;;4.57;4.37;;;24.60;99.90;;;;;;5056069;28;20487;-57
2022/06/28 00:21:06;;;;;;;4.50;4.10;;;24.60;99.90;;;;;;5055998;28;20492;-58
2022/06/28 00:23:34;;;;;;;4.47;4.27;;;24.60;99.90;;;;;;5056206;28;20475;-58
2022/06/28 00:26:02;;;;;;;5.23;4.73;;;24.50;99.90;;;;;;5056091;28;20462;-58
2022/06/28 00:28:29;;;;;;;4.93;4.40;;;24.50;99.90;;;;;;5056075;28;20478;-58
2022/06/28 00:30:55;;;;;;;4.33;4.10;;;24.40;99.90;;;;;;5055983;28;20463;-57
2022/06/28 00:33:22;;;;;;;4.90;4.40;;;24.50;99.90;;;;;;5055832;28;20452;-59
2022/06/28 00:35:48;;;;;;;6.67;5.27;;;24.40;99.90;;;;;;5055659;28;20973;-58
2022/06/28 00:38:16;;;;;;;4.97;4.60;;;24.30;99.90;;;;;;5055850;28;20463;-57
2022/06/28 00:40:46;;;;;;;5.77;5.30;;;24.10;99.90;;;;;;5055824;28;20452;-57
2022/06/28 00:43:15;;;;;;;5.60;5.23;;;24.00;99.90;;;;;;5055744;28;20458;-58
2022/06/28 00:45:43;;;;;;;5.50;5.20;;;23.80;99.90;;;;;;5055658;28;20539;-58
2022/06/28 00:48:10;;;;;;;6.30;5.90;;;23.80;99.90;;;;;;5055532;28;20449;-58
2022/06/28 00:50:38;;;;;;;6.17;5.73;;;23.70;99.90;;;;;;5055670;28;20451;-58
2022/06/28 00:53:07;;;;;;;6.53;6.10;;;23.60;99.90;;;;;;5055612;28;20444;-56
2022/06/28 00:55:34;;;;;;;7.80;7.10;;;23.50;99.90;;;;;;5055430;28;20478;-58
2022/06/28 00:58:01;;;;;;;6.90;6.50;;;23.40;99.90;;;;;;5055250;28;20476;-57
2022/06/28 01:00:30;;;;;;;6.63;6.23;;;23.30;99.90;;;;;;5054354;28;20455;-57
2022/06/28 01:02:56;;;;;;;8.33;7.40;;;23.30;99.90;;;;;;5055225;28;20543;-57
2022/06/28 01:05:23;;;;;;;7.60;7.10;;;23.30;99.90;;;;;;5055426;28;20781;-56
2022/06/28 01:07:49;;;;;;;6.87;6.27;;;23.20;99.90;;;;;;5055319;28;20456;-57
2022/06/28 01:10:16;;;;;;;7.40;6.87;;;23.10;99.90;;;;;;5055215;28;20454;-56
2022/06/28 01:12:42;;;;;;;7.20;6.70;;;23.10;99.90;;;;;;5054998;28;20932;-56
2022/06/28 01:15:10;;;;;;;7.53;6.93;;;23.00;99.90;;;;;;5054908;28;20448;-57
2022/06/28 01:17:38;;;;;;;8.07;7.43;;;22.90;99.90;;;;;;5055067;28;20520;-57
2022/06/28 01:20:06;;;;;;;8.97;7.67;;;22.90;99.90;;;;;;5055089;28;20881;-57
2022/06/28 01:22:39;;;;;;;8.20;7.53;;;22.80;99.90;;;;;;5055063;28;20856;-57
2022/06/28 01:25:08;;;;;;;7.57;6.97;;;22.80;99.90;;;;;;5054908;28;20456;-57
2022/06/28 01:27:35;;;;;;;7.90;7.20;;;22.90;99.90;;;;;;5054821;28;20456;-57
2022/06/28 01:30:02;;;;;;;7.80;7.30;;;22.80;99.90;;;;;;5054698;28;20455;-58
2022/06/28 01:32:29;;;;;;;8.40;7.80;;;22.90;99.90;;;;;;5054981;28;20452;-58
2022/06/28 01:34:55;;;;;;;8.13;7.73;;;23.00;99.90;;;;;;5054800;28;20539;-58
2022/06/28 01:37:22;;;;;;;7.67;7.17;;;23.00;99.90;;;;;;5054633;28;20495;-58
2022/06/28 01:39:50;;;;;;;8.70;8.10;;;23.00;99.90;;;;;;5054557;28;20452;-58
2022/06/28 01:42:17;;;;;;;8.33;7.73;;;23.00;99.90;;;;;;5054506;28;20448;-59
2022/06/28 01:44:45;;;;;;;8.03;7.53;;;22.90;99.90;;;;;;5054678;28;20800;-57
2022/06/28 01:47:13;;;;;;;8.70;8.00;;;22.90;99.90;;;;;;5054602;28;20453;-58
2022/06/28 01:49:40;;;;;;;7.80;7.20;;;23.00;99.90;;;;;;5054453;28;20448;-58
2022/06/28 01:52:07;;;;;;;7.53;7.03;;;23.00;99.90;;;;;;5054439;28;20788;-58
2022/06/28 01:54:33;;;;;;;8.90;8.30;;;22.90;99.90;;;;;;5054308;28;20467;-58
2022/06/28 01:57:03;;;;;;;8.27;7.70;;;22.90;99.90;;;;;;5054182;28;20506;-58
2022/06/28 01:59:29;;;;;;;8.27;7.67;;;22.90;99.90;;;;;;5054326;28;20448;-58
2022/06/28 02:01:56;;;;;;;8.07;7.53;;;22.90;99.90;;;;;;5054308;28;20452;-57
2022/06/28 02:04:25;;;;;;;9.20;8.40;;;22.90;99.90;;;;;;5054188;28;20444;-56
2022/06/28 02:06:51;;;;;;;8.10;7.50;;;22.80;99.90;;;;;;5054162;28;20455;-57
2022/06/28 02:09:18;;;;;;;7.20;6.80;;;22.80;99.90;;;;;;5053941;28;20452;-58
2022/06/28 02:11:45;;;;;;;8.47;7.87;;;22.70;99.90;;;;;;5053893;28;20444;-57
2022/06/28 02:14:12;;;;;;;9.10;8.30;;;22.70;99.90;;;;;;5053943;28;20456;-56
2022/06/28 02:16:39;;;;;;;8.80;8.30;;;22.60;99.90;;;;;;5053855;28;20499;-57
2022/06/28 02:19:06;;;;;;;7.67;7.23;;;22.60;99.90;;;;;;5053878;28;20816;-57
2022/06/28 02:21:36;;;;;;;7.70;7.13;;;22.60;99.90;;;;;;5053968;28;20444;-57
2022/06/28 02:24:03;;;;;;;8.63;8.10;;;22.60;99.90;;;;;;5053787;28;20535;-57
2022/06/28 02:26:31;;;;;;;8.90;8.20;;;22.40;99.90;;;;;;5053974;28;20808;-58
2022/06/28 02:28:58;;;;;;;8.23;7.63;;;22.50;99.90;;;;;;5053666;28;20448;-58
2022/06/28 02:31:26;;;;;;;8.77;8.17;;;22.50;99.90;;;;;;5053775;28;20539;-57
2022/06/28 02:33:53;;;;;;;8.30;7.80;;;22.40;99.90;;;;;;5053544;28;20543;-57
2022/06/28 02:41:51;;;;;;;8.70;7.90;;;22.50;99.90;;;;;;5053162;28;20441;-57
2022/06/28 02:44:17;;;;;;;8.80;8.20;;;22.40;99.90;;;;;;5053480;28;20444;-57
2022/06/28 02:46:46;;;;;;;8.33;7.83;;;22.50;99.90;;;;;;5053333;28;20444;-57
2022/06/28 02:49:13;;;;;;;8.20;7.70;;;22.70;99.90;;;;;;5053732;28;20444;-56
2022/06/28 02:51:39;;;;;;;7.73;7.23;;;22.70;99.90;;;;;;5053508;28;20451;-58
2022/06/28 02:54:06;;;;;;;9.33;8.53;;;22.70;99.90;;;;;;5053359;28;20455;-57
2022/06/28 02:56:32;;;;;;;9.57;8.93;;;22.80;99.90;;;;;;5053026;28;20484;-57
2022/06/28 02:58:59;;;;;;;8.83;8.13;;;22.80;99.90;;;;;;5053207;28;20459;-57
2022/06/28 03:01:25;;;;;;;8.40;7.90;;;22.80;99.90;;;;;;5053091;28;20448;-58
2022/06/28 03:03:53;;;;;;;8.70;8.10;;;22.80;99.90;;;;;;5053205;28;20455;-57
2022/06/28 03:06:20;;;;;;;9.73;9.00;;;22.70;99.90;;;;;;5053278;28;20506;-57
2022/06/28 03:08:46;;;;;;;9.13;8.53;;;22.80;99.90;;;;;;5053100;28;20452;-57
2022/06/28 03:11:13;;;;;;;9.67;8.97;;;22.60;99.90;;;;;;5053041;28;20448;-57
2022/06/28 03:13:39;;;;;;;9.20;8.50;;;22.70;99.90;;;;;;5053027;28;20455;-57
2022/06/28 03:16:06;;;;;;;9.10;8.53;;;22.80;99.90;;;;;;5052955;28;20567;-58
2022/06/28 03:18:32;;;;;;;10.23;9.43;;;22.80;99.90;;;;;;5053014;28;20570;-57
2022/06/28 03:21:00;;;;;;;10.60;9.80;;;22.80;99.90;;;;;;5053053;28;20838;-58
2022/06/28 03:23:27;;;;;;;9.67;8.97;;;22.70;99.90;;;;;;5052442;28;20498;-55
2022/06/28 03:25:53;;;;;;;8.57;7.97;;;22.60;99.90;;;;;;5052945;28;20578;-57
2022/06/28 03:28:20;;;;;;;10.60;9.90;;;22.70;99.90;;;;;;5052844;28;20456;-59
2022/06/28 03:30:46;;;;;;;10.17;9.57;;;22.70;99.90;;;;;;5052734;28;20448;-57
2022/06/28 03:33:12;;;;;;;10.27;9.50;;;22.60;99.90;;;;;;5052847;28;20807;-57
2022/06/28 03:35:39;;;;;;;11.07;10.17;;;22.60;99.90;;;;;;5052874;28;20448;-57
2022/06/28 03:38:07;;;;;;;10.87;9.93;;;22.50;99.90;;;;;;5052759;28;20484;-57
2022/06/28 03:40:33;;;;;;;9.63;9.03;;;22.50;99.90;;;;;;5052837;28;20815;-55
2022/06/28 03:43:00;;;;;;;9.20;8.50;;;22.50;99.90;;;;;;5052625;28;20448;-57
2022/06/28 03:45:27;;;;;;;8.97;8.37;;;22.30;99.90;;;;;;5052571;28;20476;-57
2022/06/28 03:47:53;;;;;;;8.13;7.43;;;22.30;99.90;;;;;;5052804;28;20449;-57
2022/06/28 03:50:20;;;;;;;11.23;8.17;;;22.30;99.90;;;;;;5052668;28;20454;-55
2022/06/28 03:52:46;;;;;;;6.93;6.43;;;22.10;99.90;;;;;;5053038;28;20825;-57
2022/06/28 03:55:14;;;;;;;6.23;5.93;;;22.10;99.90;;;;;;5052780;28;20547;-58
2022/06/28 03:57:41;;;;;;;7.30;6.57;;;22.00;99.90;;;;;;5052210;28;20824;-55
2022/06/28 04:00:08;;;;;;;6.20;5.80;;;21.90;99.90;;;;;;5052690;28;20456;-58
2022/06/28 04:02:35;;;;;;;6.97;6.50;;;21.80;99.90;;;;;;5052674;28;20453;-56
2022/06/28 04:05:01;;;;;;;6.53;6.13;;;21.70;99.90;;;;;;5052627;28;20452;-58
2022/06/28 04:07:28;;;;;;;6.00;5.60;;;21.60;99.90;;;;;;5052452;28;20448;-57
2022/06/28 04:09:54;;;;;;;6.40;6.00;;;21.50;99.90;;;;;;5052472;28;20459;-57
2022/06/28 04:12:22;;;;;;;5.37;5.07;;;21.50;99.90;;;;;;5052330;28;20981;-58
2022/06/28 04:14:48;;;;;;;6.03;5.60;;;21.50;99.90;;;;;;5052480;28;20506;-58
2022/06/28 04:17:15;;;;;;;6.90;6.50;;;21.50;99.90;;;;;;5052438;28;20480;-57
2022/06/28 04:19:41;;;;;;;7.10;6.60;;;21.40;99.90;;;;;;5052387;28;20475;-55
2022/06/28 04:22:08;;;;;;;6.27;5.60;;;21.40;99.90;;;;;;5052345;28;20444;-57
2022/06/28 04:24:35;;;;;;;6.60;6.10;;;21.30;99.90;;;;;;5052260;28;20532;-57
2022/06/28 04:27:01;;;;;;;5.80;5.40;;;21.30;99.90;;;;;;5052198;28;20448;-57
2022/06/28 04:29:29;;;;;;;7.07;6.57;;;21.30;99.90;;;;;;5052386;28;20450;-57
2022/06/28 04:31:56;;;;;;;6.27;5.90;;;21.30;99.90;;;;;;5052360;28;20444;-56
2022/06/28 04:34:23;;;;;;;5.47;5.17;;;21.30;99.90;;;;;;5052865;28;20555;-58
2022/06/28 04:36:49;;;;;;;5.53;5.13;;;21.30;99.90;;;;;;5055713;28;20813;-57
2022/06/28 04:39:16;;;;;;;6.70;6.17;;;21.20;99.90;;;;;;5055694;28;20448;-58
2022/06/28 04:41:42;;;;;;;5.73;5.33;;;21.20;99.90;;;;;;5055627;28;20543;-55
2022/06/28 04:44:09;;;;;;;5.80;5.40;;;21.20;99.90;;;;;;5055715;28;20839;-57
2022/06/28 04:46:36;;;;;;;6.17;5.77;;;21.10;99.90;;;;;;5055716;28;20448;-57
2022/06/28 04:49:03;;;;;;;5.10;4.70;;;21.10;99.90;;;;;;5055647;28;20796;-57
2022/06/28 04:51:29;;;;;;;5.77;5.37;;;21.10;99.90;;;;;;5055496;28;20444;-58
2022/06/28 04:53:56;;;;;;;6.47;5.03;;;21.10;99.90;;;;;;5055322;28;20850;-54
2022/06/28 04:56:24;;;;;;;6.00;5.67;;;21.10;99.90;;;;;;5055316;28;20568;-57
2022/06/28 04:58:51;;;;;;;5.57;5.17;;;21.00;99.90;;;;;;5055406;28;20484;-55
2022/06/28 05:01:17;;;;;;;5.40;5.10;;;21.00;99.90;;;;;;5055353;28;20548;-53
2022/06/28 05:03:45;;;;;;;4.90;4.60;;;21.10;99.90;;;;;;5055340;28;20496;-57
2022/06/28 05:06:12;;;;;;;5.10;4.80;;;21.00;99.90;;;;;;5055235;28;20448;-57
2022/06/28 05:08:38;;;;;;;5.10;4.80;;;21.00;99.90;;;;;;5055026;28;20816;-55
2022/06/28 05:11:06;;;;;;;4.90;4.60;;;20.90;99.90;;;;;;5055203;28;20491;-57
2022/06/28 05:13:33;;;;;;;5.10;4.80;;;20.90;99.90;;;;;;5055250;28;20453;-57
2022/06/28 05:15:59;;;;;;;4.57;4.27;;;20.90;99.90;;;;;;5055113;28;20813;-56
2022/06/28 05:18:26;;;;;;;4.13;3.83;;;20.80;99.90;;;;;;5054982;28;20602;-57
2022/06/28 05:20:54;;;;;;;4.20;4.00;;;20.80;99.90;;;;;;5054917;28;20455;-57
2022/06/28 05:23:20;;;;;;;3.63;3.43;;;20.70;99.90;;;;;;5055016;28;20445;-57
2022/06/28 05:25:47;;;;;;;4.80;4.50;;;20.80;99.90;;;;;;5054921;28;20448;-57
2022/06/28 05:28:13;;;;;;;3.80;3.60;;;20.70;99.90;;;;;;5054930;28;20449;-57
2022/06/28 05:30:40;;;;;;;3.63;3.40;;;20.80;99.90;;;;;;5054602;28;20978;-57
2022/06/28 05:33:07;;;;;;;3.57;3.30;;;20.70;99.90;;;;;;5054740;28;20511;-56
2022/06/28 05:35:33;;;;;;;3.70;3.50;;;20.70;99.90;;;;;;5054562;28;20456;-56
2022/06/28 05:38:02;;;;;;;3.93;3.73;;;20.70;99.90;;;;;;5054630;28;20523;-57
2022/06/28 05:40:29;;;;;;;4.27;3.97;;;20.60;99.90;;;;;;5054737;28;20487;-56
2022/06/28 05:42:55;;;;;;;4.70;4.40;;;20.60;99.90;;;;;;5054590;28;20480;-56
2022/06/28 05:45:22;;;;;;;4.30;4.00;;;20.70;99.90;;;;;;5053834;28;20451;-56
2022/06/28 05:47:49;;;;;;;4.80;4.37;;;20.70;99.90;;;;;;5054352;28;20452;-56
2022/06/28 05:50:15;;;;;;;5.60;3.87;;;20.60;99.90;;;;;;5054165;28;20453;-56
2022/06/28 05:52:42;;;;;;;3.80;3.60;;;20.60;99.90;;;;;;5054516;28;20452;-57
2022/06/28 05:55:10;;;;;;;4.63;4.43;;;20.60;99.90;;;;;;5054361;28;20456;-57
2022/06/28 05:57:36;;;;;;;4.53;4.23;;;20.50;99.90;;;;;;5054005;28;20492;-57
2022/06/28 06:00:04;;;;;;;4.33;3.40;;;20.60;99.90;;;;;;5054210;28;20461;-56
2022/06/28 06:02:30;;;;;;;4.10;3.80;;;20.50;99.90;;;;;;5053939;28;20448;-58
2022/06/28 06:04:59;;;;;;;4.10;3.73;;;20.50;99.90;;;;;;5053922;28;20448;-57
2022/06/28 06:07:25;;;;;;;3.80;3.60;;;20.40;99.90;;;;;;5054040;28;20487;-57
2022/06/28 06:09:52;;;;;;;4.30;4.10;;;20.50;99.90;;;;;;5053799;28;21011;-57
2022/06/28 06:12:21;;;;;;;5.10;4.80;;;20.50;99.90;;;;;;5053909;28;20452;-57
2022/06/28 06:14:47;;;;;;;5.20;4.90;;;20.40;99.90;;;;;;5053835;28;20448;-57
2022/06/28 06:17:14;;;;;;;5.40;5.10;;;20.20;99.90;;;;;;5053483;28;20578;-56
2022/06/28 06:19:40;;;;;;;4.87;4.57;;;20.20;99.90;;;;;;5053849;28;20459;-56
2022/06/28 06:22:07;;;;;;;5.73;5.37;;;20.10;99.90;;;;;;5053821;28;20454;-57
2022/06/28 06:24:33;;;;;;;5.50;5.20;;;20.00;99.90;;;;;;5053788;28;20452;-57
2022/06/28 06:27:00;;;;;;;5.27;4.87;;;19.90;99.90;;;;;;5053620;28;20514;-56
2022/06/28 06:29:28;;;;;;;5.10;4.80;;;19.80;99.90;;;;;;5053673;28;20815;-56
2022/06/28 06:31:55;;;;;;;4.53;4.23;;;19.90;99.90;;;;;;5053472;28;20502;-55
2022/06/28 06:34:21;;;;;;;5.60;4.13;;;19.90;99.90;;;;;;5053552;28;20854;-56
2022/06/28 06:36:47;;;;;;;5.43;4.27;;;19.90;99.90;;;;;;5053431;28;20474;-55
2022/06/28 06:39:14;;;;;;;4.23;3.93;;;20.00;99.90;;;;;;5053272;28;20526;-57
2022/06/28 06:41:41;;;;;;;4.40;4.10;;;19.90;99.90;;;;;;5053235;28;20457;-56
2022/06/28 06:44:08;;;;;;;4.30;4.10;;;19.90;99.90;;;;;;5053049;28;20448;-57
2022/06/28 06:46:36;;;;;;;4.87;4.57;;;20.00;99.90;;;;;;5053041;28;20484;-58
2022/06/28 06:49:03;;;;;;;3.87;3.60;;;19.90;99.90;;;;;;5053464;28;21012;-57
2022/06/28 06:51:31;;;;;;;3.67;3.47;;;20.00;99.90;;;;;;5053166;28;20459;-56
2022/06/28 06:53:58;;;;;;;5.30;3.87;;;20.10;99.90;;;;;;5053149;28;20456;-60
2022/06/28 06:56:24;;;;;;;3.57;3.37;;;20.20;99.90;;;;;;5052335;28;21005;-55
2022/06/28 06:58:51;;;;;;;3.57;3.37;;;20.20;99.90;;;;;;5052387;28;20490;-56
2022/06/28 07:01:17;;;;;;;3.67;3.20;;;20.20;99.90;;;;;;5052763;28;20452;-55
2022/06/28 07:03:45;;;;;;;3.30;3.07;;;20.30;99.90;;;;;;5052958;28;20448;-55
2022/06/28 07:06:13;;;;;;;3.20;3.10;;;20.40;99.90;;;;;;5052760;28;20535;-55
2022/06/28 07:08:39;;;;;;;3.07;2.97;;;20.60;99.90;;;;;;5052800;28;20518;-55
2022/06/28 07:11:06;;;;;;;3.27;3.00;;;20.70;99.90;;;;;;5052831;28;20456;-55
2022/06/28 07:13:32;;;;;;;3.87;3.60;;;20.90;99.90;;;;;;5052600;28;20835;-56
2022/06/28 07:16:01;;;;;;;3.10;2.90;;;20.90;99.90;;;;;;5052920;28;20448;-55
2022/06/28 07:18:28;;;;;;;3.17;2.97;;;21.00;99.90;;;;;;5052646;28;20484;-56
2022/06/28 07:20:56;;;;;;;3.07;2.97;;;21.20;99.90;;;;;;5052686;28;20800;-55
2022/06/28 07:23:23;;;;;;;3.43;2.50;;;21.30;99.90;;;;;;5052589;28;20474;-56
2022/06/28 07:25:49;;;;;;;3.10;2.90;;;21.40;99.90;;;;;;5052663;28;20547;-56
2022/06/28 07:28:16;;;;;;;2.60;2.50;;;21.60;99.90;;;;;;5052338;28;20535;-56
2022/06/28 07:30:43;;;;;;;2.60;2.40;;;21.80;99.90;;;;;;5052521;28;20476;-54
2022/06/28 07:33:10;;;;;;;3.30;2.27;;;22.10;99.90;;;;;;5052429;28;20437;-56
2022/06/28 07:35:37;;;;;;;3.47;2.77;;;22.20;99.90;;;;;;5052415;28;20803;-53
2022/06/28 07:38:05;;;;;;;3.50;2.60;;;22.20;99.90;;;;;;5052356;28;20852;-56
2022/06/28 07:40:31;;;;;;;2.47;2.33;;;22.20;99.90;;;;;;5052068;28;20458;-56
2022/06/28 07:42:58;;;;;;;2.37;2.27;;;22.20;99.90;;;;;;5052561;28;20453;-55
2022/06/28 07:45:24;;;;;;;3.10;2.20;;;22.30;99.90;;;;;;5052563;28;20590;-56
2022/06/28 07:47:51;;;;;;;2.57;2.37;;;22.30;99.90;;;;;;5052472;28;20803;-54
2022/06/28 07:53:03;;;;;;;6.20;2.77;;;22.50;99.90;;;;;;5052381;28;21001;-54
2022/06/28 07:55:32;;;;;;;3.43;2.50;;;22.50;99.90;;;;;;5052568;28;20800;-57
2022/06/28 07:58:00;;;;;;;2.60;2.40;;;22.60;99.90;;;;;;5052135;28;20511;-56
2022/06/28 08:00:27;;;;;;;2.23;2.00;;;22.60;99.90;;;;;;5052551;28;20452;-55
2022/06/28 08:02:54;;;;;;;2.40;2.30;;;22.70;99.90;;;;;;5052317;28;20884;-55
2022/06/28 08:05:20;;;;;;;2.63;2.53;;;22.60;99.90;;;;;;5052206;28;20538;-53
2022/06/28 08:07:48;;;;;;;2.23;2.13;;;22.70;99.90;;;;;;5052091;28;20541;-55
2022/06/28 08:10:14;;;;;;;2.10;2.00;;;22.70;99.90;;;;;;5059906;28;20500;-54
2022/06/28 08:12:43;;;;;;;2.63;2.53;;;22.80;99.90;;;;;;5075749;28;20881;-57
2022/06/28 08:15:10;;;;;;;2.27;2.17;;;22.90;99.90;;;;;;5076086;28;20458;-58
2022/06/28 08:17:37;;;;;;;2.40;2.30;;;23.00;99.90;;;;;;5070936;28;20459;-57
2022/06/28 08:20:04;;;;;;;2.20;1.97;;;23.00;99.90;;;;;;5059522;28;20470;-60
2022/06/28 08:22:31;;;;;;;2.23;2.03;;;23.10;99.90;;;;;;5075671;28;20449;-59
2022/06/28 08:24:57;;;;;;;2.10;2.00;;;23.10;99.90;;;;;;5076004;28;20813;-60
2022/06/28 08:27:24;;;;;;;3.40;2.03;;;23.10;99.90;;;;;;5064389;28;20460;-57
2022/06/28 08:29:52;;;;;;;1.97;1.87;;;23.30;99.90;;;;;;5070617;28;20451;-58
2022/06/28 08:32:20;;;;;;;2.70;1.73;;;23.40;99.90;;;;;;5075586;28;20892;-58
2022/06/28 08:34:48;;;;;;;2.30;2.20;;;23.60;99.90;;;;;;5073736;28;20456;-59
2022/06/28 08:37:14;;;;;;;1.60;1.50;;;23.60;99.90;;;;;;5074908;28;20451;-57
2022/06/28 08:39:41;;;;;;;1.73;1.63;;;23.30;99.90;;;;;;5075226;28;20574;-59
2022/06/28 08:42:10;;;;;;;1.90;1.80;;;23.50;99.90;;;;;;5072993;28;20806;-59
2022/06/28 08:44:37;;;;;;;2.37;2.10;;;23.50;99.90;;;;;;5075500;28;20444;-59
2022/06/28 08:47:06;;;;;;;1.90;1.80;;;22.90;99.90;;;;;;5075041;28;20554;-60
2022/06/28 08:49:36;;;;;;;1.90;1.57;;;23.30;99.90;;;;;;5076038;28;20542;-57
2022/06/28 08:52:04;;;;;;;2.13;2.03;;;23.20;99.90;;;;;;5074991;28;20942;-58
2022/06/28 08:54:31;;;;;;;1.80;1.70;;;23.40;99.90;;;;;;5075472;28;20458;-59
2022/06/28 08:56:58;;;;;;;4.70;1.80;;;23.20;99.90;;;;;;5072962;28;20485;-59
2022/06/28 08:59:25;;;;;;;1.80;1.70;;;23.60;99.90;;;;;;5073743;28;20480;-59
2022/06/28 09:01:52;;;;;;;1.80;1.67;;;23.80;99.90;;;;;;5074247;28;20456;-59
2022/06/28 09:04:20;;;;;;;1.80;1.70;;;23.90;99.90;;;;;;5074002;28;20452;-59
2022/06/28 09:06:46;;;;;;;2.30;2.10;;;23.60;99.90;;;;;;5068608;28;20457;-59
2022/06/28 09:09:13;;;;;;;1.93;1.83;;;23.80;99.90;;;;;;5074591;28;20530;-59
2022/06/28 09:11:42;;;;;;;2.93;1.70;;;23.60;99.90;;;;;;5073077;28;20455;-60
2022/06/28 09:14:24;;;;;;;2.27;2.07;;;23.80;99.90;;;;;;5071031;28;20534;-60
2022/06/28 09:16:51;;;;;;;1.70;1.60;;;23.00;99.90;;;;;;5073654;28;20524;-60
2022/06/28 09:19:17;;;;;;;2.03;1.80;;;22.80;99.90;;;;;;5074066;28;20826;-60
2022/06/28 09:21:46;;;;;;;1.70;1.60;;;23.20;99.90;;;;;;5076627;28;20454;-60
2022/06/28 09:24:24;;;;;;;2.40;2.20;;;23.50;99.90;;;;;;5066990;28;20481;-60
2022/06/28 09:26:54;;;;;;;2.00;1.90;;;23.60;99.90;;;;;;5074642;28;20459;-60
2022/06/28 09:29:20;;;;;;;2.43;2.00;;;23.90;99.90;;;;;;5073735;28;20457;-60
2022/06/28 09:31:47;;;;;;;1.57;1.47;;;24.30;99.90;;;;;;5074703;28;20447;-59
2022/06/28 09:34:13;;;;;;;1.57;1.40;;;24.50;99.90;;;;;;5074610;28;20455;-59
2022/06/28 09:36:54;;;;;;;1.40;1.30;;;24.40;99.90;;;;;;5074323;28;20443;-58
2022/06/28 09:39:27;;;;;;;2.00;1.50;;;24.30;99.90;;;;;;5075004;28;20479;-58
2022/06/28 09:41:55;;;;;;;1.70;1.60;;;23.70;99.90;;;;;;5074482;28;20540;-62
2022/06/28 09:44:24;;;;;;;2.13;1.80;;;24.10;99.90;;;;;;5074316;28;20447;-59
2022/06/28 09:46:52;;;;;;;2.00;1.80;;;24.20;99.90;;;;;;5074254;28;20447;-59
2022/06/28 09:49:19;;;;;;;1.60;1.50;;;24.50;99.90;;;;;;5073275;28;20551;-58
2022/06/28 09:51:46;;;;;;;1.90;1.80;;;24.80;99.90;;;;;;5071431;28;20456;-60
2022/06/28 09:54:13;;;;;;;3.87;2.03;;;24.90;99.90;;;;;;5072736;28;20969;-62
2022/06/28 09:56:43;;;;;;;2.80;1.60;;;25.00;99.90;;;;;;5070874;28;20613;-60
2022/06/28 09:59:11;;;;;;;1.80;1.70;;;25.10;99.90;;;;;;5073198;28;20481;-60
2022/06/28 10:01:38;;;;;;;1.70;1.60;;;25.00;99.90;;;;;;5066592;28;20495;-60
2022/06/28 10:04:05;;;;;;;1.60;1.50;;;25.20;99.90;;;;;;5054222;28;20452;-58
2022/06/28 10:06:32;;;;;;;1.20;1.10;;;25.60;99.90;;;;;;5070803;28;20451;-59
2022/06/28 10:08:59;;;;;;;2.27;1.40;;;25.60;99.90;;;;;;5072372;28;20451;-57
2022/06/28 10:15:00;;;;;;;1.40;1.30;;;25.00;99.90;;;;;;5057921;28;20452;-60
2022/06/28 10:17:05;;;;;;;1.50;1.40;;;25.00;99.90;;;;;;5060945;28;20807;-54
2022/06/28 10:19:34;;;;;;;1.73;1.53;;;25.20;99.90;;;;;;5072975;28;20490;-53
2022/06/28 10:22:11;;;;;;;1.57;1.47;;;25.10;99.90;;;;;;5072598;28;20454;-54
2022/06/28 10:24:52;;;;;;;1.43;1.33;;;24.80;99.90;;;;;;5072398;28;20447;-52
2022/06/28 10:27:19;;;;;;;1.40;1.30;;;24.50;99.90;;;;;;5073199;28;20466;-51
2022/06/28 10:30:19;;;;;;;1.70;1.60;;;24.80;99.90;;;;;;5073655;28;20447;-57
2022/06/28 10:32:47;;;;;;;2.00;1.47;;;24.90;99.90;;;;;;5073463;28;20542;-54
2022/06/28 10:36:01;;;;;;;1.50;1.40;;;24.80;99.90;;;;;;5073366;28;20450;-53
2022/06/28 10:38:28;;;;;;;1.40;1.30;;;24.80;99.90;;;;;;5073366;28;20454;-54
2022/06/28 10:40:55;;;;;;;5.03;1.87;;;24.60;99.90;;;;;;5073347;28;20482;-52
2022/06/28 10:43:48;;;;;;;3.30;1.70;;;24.00;99.90;;;;;;5073332;28;20450;-52
2022/06/28 10:46:16;;;;;;;1.60;1.47;;;24.20;99.90;;;;;;5073096;28;20513;-52
2022/06/28 10:49:05;;;;;;;2.13;1.40;;;24.80;99.90;;;;;;5073121;28;21022;-53
2022/06/28 10:51:32;;;;;;;1.37;1.20;;;25.00;99.90;;;;;;5073033;28;20879;-56
2022/06/28 10:54:01;;;;;;;1.50;1.40;;;24.90;99.90;;;;;;5073006;28;21033;-52
2022/06/28 10:56:29;;;;;;;1.87;1.50;;;24.80;99.90;;;;;;5072799;28;20555;-52
2022/06/28 10:58:57;;;;;;;1.87;1.40;;;24.60;99.90;;;;;;5073211;28;20475;-52
2022/06/28 11:01:56;;;;;;;2.80;1.77;;;24.50;99.90;;;;;;5073141;28;20452;-54
2022/06/28 11:04:26;;;;;;;1.53;1.43;;;24.60;99.90;;;;;;5073073;28;20436;-52
2022/06/28 11:06:55;;;;;;;2.70;1.30;;;24.20;99.90;;;;;;5073053;28;20481;-54
2022/06/28 11:09:34;;;;;;;1.93;1.73;;;24.40;99.90;;;;;;5073085;28;20942;-56
2022/06/28 11:12:06;;;;;;;1.50;1.40;;;24.70;99.90;;;;;;5073018;28;20475;-52
2022/06/28 11:14:36;;;;;;;1.50;1.40;;;25.00;99.90;;;;;;5072814;28;20448;-52
2022/06/28 11:17:15;;;;;;;1.30;1.20;;;25.30;99.90;;;;;;5072588;28;20478;-54
2022/06/28 11:19:50;;;;;;;1.40;1.30;;;25.30;99.90;;;;;;5072863;28;20475;-55
2022/06/28 11:22:18;;;;;;;1.73;1.60;;;24.70;99.90;;;;;;5072924;28;20841;-52
2022/06/28 11:24:45;;;;;;;1.23;1.13;;;24.10;99.90;;;;;;5072820;28;20447;-57
2022/06/28 11:27:21;;;;;;;3.23;1.27;;;24.30;99.90;;;;;;5072661;28;20451;-55
2022/06/28 11:29:49;;;;;;;1.37;1.27;;;24.70;99.90;;;;;;5072581;28;20966;-55
2022/06/28 11:32:19;;;;;;;1.27;1.17;;;25.10;99.90;;;;;;5072517;28;20955;-52
2022/06/28 11:34:55;;;;;;;2.80;1.30;;;25.50;99.90;;;;;;5072763;28;20527;-57
2022/06/28 11:37:21;;;;;;;1.40;1.30;;;25.70;99.90;;;;;;5072725;28;20469;-57
2022/06/28 11:39:51;;;;;;;1.47;1.37;;;25.90;99.90;;;;;;5072610;28;20473;-52
2022/06/28 11:42:18;;;;;;;2.77;1.50;;;26.10;99.90;;;;;;5072480;28;20449;-52
2022/06/28 11:44:44;;;;;;;2.67;1.20;;;26.30;99.90;;;;;;5075615;28;20538;-50
2022/06/28 11:47:11;;;;;;;1.40;1.30;;;26.40;99.90;;;;;;5076529;28;20538;-55
2022/06/28 11:49:39;;;;;;;0.97;0.97;;;26.40;99.90;;;;;;5076712;28;20443;-53
2022/06/28 11:52:06;;;;;;;1.23;1.13;;;26.90;99.90;;;;;;5076601;28;20538;-54
2022/06/28 11:54:32;;;;;;;3.20;1.10;;;26.50;99.90;;;;;;5076450;28;20452;-54
2022/06/28 11:56:59;;;;;;;1.77;1.00;;;26.00;99.90;;;;;;5076190;28;20993;-55
2022/06/28 11:59:55;;;;;;;1.30;1.20;;;26.10;99.90;;;;;;5076475;28;20574;-52
2022/06/28 12:02:38;;;;;;;2.70;0.90;;;26.00;99.90;;;;;;5076324;28;20486;-54
2022/06/28 12:05:08;;;;;;;3.00;1.20;;;25.40;99.90;;;;;;5076176;28;20534;-51
2022/06/28 12:07:35;;;;;;;1.20;1.00;;;25.30;99.90;;;;;;5076061;28;20538;-54
2022/06/28 12:10:02;;;;;;;3.33;1.20;;;25.20;99.90;;;;;;5076326;28;20450;-52
2022/06/28 12:12:29;;;;;;;2.53;1.07;;;25.30;99.90;;;;;;5076208;28;20453;-51
2022/06/28 12:14:57;;;;;;;1.40;1.30;;;25.20;99.90;;;;;;5076206;28;20447;-56
2022/06/28 12:17:24;;;;;;;1.43;1.33;;;25.10;99.90;;;;;;5076062;28;20453;-52
2022/06/28 12:19:50;;;;;;;2.10;1.90;;;25.10;99.90;;;;;;5075817;28;20513;-55
2022/06/28 12:22:23;;;;;;;1.13;1.03;;;25.10;99.90;;;;;;5076062;28;20486;-55
2022/06/28 12:24:51;;;;;;;1.63;1.27;;;25.20;99.90;;;;;;5075959;28;20857;-53
2022/06/28 12:27:21;;;;;;;1.60;1.00;;;25.40;99.90;;;;;;5075887;28;20447;-57
2022/06/28 12:29:48;;;;;;;1.83;1.03;;;25.60;99.90;;;;;;5075736;28;20487;-54
2022/06/28 12:32:15;;;;;;;2.03;1.30;;;25.40;99.90;;;;;;5075707;28;20864;-56
2022/06/28 12:34:42;;;;;;;1.30;1.20;;;25.00;99.90;;;;;;5075805;28;20447;-53
2022/06/28 12:37:09;;;;;;;5.17;1.00;;;25.20;99.90;;;;;;5076100;28;20776;-57
2022/06/28 12:39:37;;;;;;;1.70;1.00;;;25.30;99.90;;;;;;5075677;28;20475;-56
2022/06/28 12:42:05;;;;;;;1.37;1.13;;;25.50;99.90;;;;;;5075494;28;20447;-55
2022/06/28 12:44:32;;;;;;;1.00;0.90;;;25.50;99.90;;;;;;5075491;28;20444;-56
2022/06/28 12:46:59;;;;;;;1.33;1.23;;;25.30;99.90;;;;;;5075139;28;20542;-57
2022/06/28 12:49:25;;;;;;;1.00;0.90;;;25.20;99.90;;;;;;5075577;28;20453;-56
2022/06/28 12:51:53;;;;;;;1.17;1.07;;;25.20;99.90;;;;;;5075459;28;20454;-56
2022/06/28 12:54:19;;;;;;;1.67;1.20;;;25.70;99.90;;;;;;5074962;28;20448;-56
2022/06/28 12:56:47;;;;;;;1.00;1.00;;;26.30;99.90;;;;;;5074296;28;20899;-55
2022/06/28 12:59:14;;;;;;;1.30;1.20;;;26.60;99.90;;;;;;5075068;28;20455;-55
2022/06/28 13:01:40;;;;;;;1.57;1.47;;;26.90;99.90;;;;;;5075269;28;20813;-56